createdAt,value
2018-12-09T00:00:37.080Z,0.00
2018-12-09T00:01:37.062Z,0.00
2018-12-09T00:02:37.068Z,0.00
2018-12-09T00:03:37.054Z,0.00
2018-12-09T00:04:37.029Z,0.00
2018-12-09T00:05:37.020Z,0.00
2018-12-09T00:06:37.022Z,0.00
2018-12-09T00:07:37.000Z,0.00
2018-12-09T00:08:37.009Z,0.00
2018-12-09T00:09:36.973Z,0.00
2018-12-09T00:10:37.003Z,0.00
2018-12-09T00:11:36.952Z,0.00
2018-12-09T00:12:36.946Z,0.00
2018-12-09T00:13:36.934Z,0.00
2018-12-09T00:14:36.919Z,0.00
2018-12-09T00:15:36.913Z,0.00
2018-12-09T00:16:36.915Z,0.00
2018-12-09T00:17:36.888Z,0.00
2018-12-09T00:18:36.880Z,0.00
2018-12-09T00:19:36.867Z,0.00
2018-12-09T00:20:36.856Z,0.00
2018-12-09T00:21:36.898Z,0.00
2018-12-09T00:22:36.843Z,0.00
2018-12-09T00:23:36.825Z,0.00
2018-12-09T00:24:36.808Z,0.00
2018-12-09T00:25:36.798Z,0.00
2018-12-09T00:26:36.794Z,0.00
2018-12-09T00:27:36.780Z,0.00
2018-12-09T00:28:36.776Z,0.00
2018-12-09T00:29:36.765Z,0.00
2018-12-09T00:30:36.743Z,0.00
2018-12-09T00:31:36.731Z,0.00
2018-12-09T00:32:36.718Z,0.00
2018-12-09T00:33:36.739Z,0.00
2018-12-09T00:34:36.701Z,0.00
2018-12-09T00:35:36.690Z,0.00
2018-12-09T00:36:36.675Z,0.00
2018-12-09T00:37:36.668Z,0.00
2018-12-09T00:38:36.662Z,0.00
2018-12-09T00:39:36.817Z,0.00
2018-12-09T00:41:46.954Z,0.00
2018-12-09T00:43:06.980Z,0.00
2018-12-09T00:44:54.729Z,0.00
2018-12-09T00:45:54.703Z,0.00
2018-12-09T00:46:54.697Z,0.00
2018-12-09T00:47:54.684Z,0.00
2018-12-09T00:48:54.681Z,0.00
2018-12-09T00:49:54.719Z,0.00
2018-12-09T00:50:54.653Z,0.00
2018-12-09T00:51:54.643Z,0.00
2018-12-09T00:52:54.628Z,0.00
2018-12-09T00:53:54.650Z,0.00
2018-12-09T00:54:54.649Z,0.00
2018-12-09T00:55:54.599Z,0.00
2018-12-09T00:56:54.585Z,0.00
2018-12-09T00:57:54.573Z,0.00
2018-12-09T00:58:54.565Z,0.00
2018-12-09T00:59:54.563Z,0.00
2018-12-09T01:00:54.567Z,0.00
2018-12-09T01:01:54.528Z,0.00
2018-12-09T01:02:54.523Z,0.00
2018-12-09T01:03:54.510Z,0.00
2018-12-09T01:04:54.497Z,0.00
2018-12-09T01:05:54.485Z,0.00
2018-12-09T01:06:54.941Z,0.00
2018-12-09T01:07:57.419Z,0.00
2018-12-09T01:08:54.453Z,0.00
2018-12-09T01:09:55.492Z,0.00
2018-12-09T01:10:54.443Z,0.00
2018-12-09T01:11:55.388Z,0.00
2018-12-09T01:12:54.427Z,0.00
2018-12-09T01:13:54.402Z,0.00
2018-12-09T01:14:54.386Z,0.00
2018-12-09T01:15:54.375Z,0.00
2018-12-09T01:16:54.378Z,0.00
2018-12-09T01:17:54.353Z,0.00
2018-12-09T01:18:54.339Z,0.00
2018-12-09T01:19:54.350Z,0.00
2018-12-09T01:20:54.320Z,0.00
2018-12-09T01:21:54.413Z,0.00
2018-12-09T01:22:54.301Z,0.00
2018-12-09T01:23:54.291Z,0.00
2018-12-09T01:24:54.274Z,0.00
2018-12-09T01:25:54.266Z,0.00
2018-12-09T01:26:54.262Z,0.00
2018-12-09T01:27:54.253Z,0.00
2018-12-09T01:28:54.232Z,0.00
2018-12-09T01:29:54.222Z,0.00
2018-12-09T01:30:54.207Z,0.00
2018-12-09T01:31:54.201Z,0.00
2018-12-09T01:32:54.232Z,0.00
2018-12-09T01:33:54.180Z,0.00
2018-12-09T01:34:54.163Z,0.00
2018-12-09T01:35:54.157Z,0.00
2018-12-09T01:36:54.140Z,0.00
2018-12-09T01:37:54.135Z,0.00
2018-12-09T01:38:54.164Z,0.00
2018-12-09T01:39:54.114Z,0.00
2018-12-09T01:40:54.096Z,0.00
2018-12-09T01:41:54.086Z,0.00
2018-12-09T01:42:54.169Z,0.00
2018-12-09T01:43:54.067Z,0.00
2018-12-09T01:44:54.068Z,0.00
2018-12-09T01:45:54.046Z,0.00
2018-12-09T01:46:54.032Z,0.00
2018-12-09T01:47:54.029Z,0.00
2018-12-09T01:48:54.019Z,0.00
2018-12-09T01:49:54.042Z,0.00
2018-12-09T01:50:53.993Z,0.00
2018-12-09T01:51:53.980Z,0.00
2018-12-09T01:52:53.970Z,0.00
2018-12-09T01:53:54.037Z,0.00
2018-12-09T01:54:53.947Z,0.00
2018-12-09T01:55:53.945Z,0.00
2018-12-09T01:56:53.962Z,0.00
2018-12-09T01:57:53.915Z,0.00
2018-12-09T01:58:53.898Z,0.00
2018-12-09T01:59:53.887Z,0.00
2018-12-09T02:00:53.895Z,0.00
2018-12-09T02:01:53.874Z,0.00
2018-12-09T02:02:53.861Z,0.00
2018-12-09T02:03:53.849Z,0.00
2018-12-09T02:04:53.841Z,0.00
2018-12-09T02:05:53.827Z,0.00
2018-12-09T02:06:53.827Z,0.00
2018-12-09T02:07:53.816Z,0.00
2018-12-09T02:08:53.796Z,0.00
2018-12-09T02:09:53.785Z,0.00
2018-12-09T02:10:53.769Z,0.00
2018-12-09T02:11:53.758Z,0.00
2018-12-09T02:12:53.758Z,0.00
2018-12-09T02:13:53.737Z,0.00
2018-12-09T02:14:53.732Z,0.00
2018-12-09T02:15:53.715Z,0.00
2018-12-09T02:16:53.713Z,0.00
2018-12-09T02:17:53.715Z,0.00
2018-12-09T02:18:53.683Z,0.00
2018-12-09T02:19:53.678Z,0.00
2018-12-09T02:20:53.667Z,0.00
2018-12-09T02:21:53.665Z,0.00
2018-12-09T02:22:53.640Z,0.00
2018-12-09T02:23:53.631Z,0.00
2018-12-09T02:24:53.622Z,0.00
2018-12-09T02:25:53.611Z,0.00
2018-12-09T02:26:53.600Z,0.00
2018-12-09T02:27:53.620Z,0.00
2018-12-09T02:28:53.571Z,0.00
2018-12-09T02:29:53.563Z,0.00
2018-12-09T02:30:53.555Z,0.00
2018-12-09T02:31:53.545Z,0.00
2018-12-09T02:32:53.528Z,0.00
2018-12-09T02:33:53.534Z,0.00
2018-12-09T02:34:53.511Z,0.00
2018-12-09T02:35:53.495Z,0.00
2018-12-09T02:36:53.529Z,0.00
2018-12-09T02:37:53.474Z,0.00
2018-12-09T02:38:53.493Z,0.00
2018-12-09T02:39:53.451Z,0.00
2018-12-09T02:40:53.453Z,0.00
2018-12-09T02:41:53.441Z,0.00
2018-12-09T02:42:53.419Z,0.00
2018-12-09T02:43:53.407Z,0.00
2018-12-09T02:44:53.410Z,0.00
2018-12-09T02:46:01.966Z,0.00
2018-12-09T02:46:53.379Z,0.00
2018-12-09T02:47:53.371Z,0.00
2018-12-09T02:48:53.358Z,0.00
2018-12-09T02:49:53.379Z,0.00
2018-12-09T02:50:53.357Z,0.00
2018-12-09T02:51:53.319Z,0.00
2018-12-09T02:52:53.312Z,0.00
2018-12-09T02:53:53.312Z,0.00
2018-12-09T02:54:53.295Z,0.00
2018-12-09T02:55:53.292Z,0.00
2018-12-09T02:56:53.282Z,0.00
2018-12-09T02:57:53.269Z,0.00
2018-12-09T02:58:53.251Z,0.00
2018-12-09T02:59:53.234Z,0.00
2018-12-09T03:00:53.258Z,0.00
2018-12-09T03:01:53.213Z,0.00
2018-12-09T03:02:53.204Z,0.00
2018-12-09T03:03:53.191Z,0.00
2018-12-09T03:04:53.191Z,0.00
2018-12-09T03:05:53.172Z,0.00
2018-12-09T03:06:53.199Z,0.00
2018-12-09T03:07:53.163Z,0.00
2018-12-09T03:08:53.197Z,0.00
2018-12-09T03:09:53.128Z,0.00
2018-12-09T03:10:53.126Z,0.00
2018-12-09T03:11:53.108Z,0.00
2018-12-09T03:12:53.113Z,0.00
2018-12-09T03:13:53.090Z,0.00
2018-12-09T03:14:53.074Z,0.00
2018-12-09T03:15:53.069Z,0.00
2018-12-09T03:16:53.081Z,0.00
2018-12-09T03:17:53.036Z,0.00
2018-12-09T03:18:53.039Z,0.00
2018-12-09T03:19:53.015Z,0.00
2018-12-09T03:20:53.013Z,0.00
2018-12-09T03:21:53.009Z,0.00
2018-12-09T03:22:52.997Z,0.00
2018-12-09T03:23:53.025Z,0.00
2018-12-09T03:24:52.960Z,0.00
2018-12-09T03:25:52.948Z,0.00
2018-12-09T03:26:55.033Z,0.00
2018-12-09T03:27:52.942Z,0.00
2018-12-09T03:28:52.925Z,0.00
2018-12-09T03:29:52.906Z,0.00
2018-12-09T03:30:52.901Z,0.00
2018-12-09T03:31:52.903Z,0.00
2018-12-09T03:32:52.911Z,0.00
2018-12-09T03:33:52.869Z,0.00
2018-12-09T03:34:52.894Z,0.00
2018-12-09T03:35:52.849Z,0.00
2018-12-09T03:36:52.831Z,0.00
2018-12-09T03:37:52.824Z,0.00
2018-12-09T03:38:52.809Z,0.00
2018-12-09T03:39:52.800Z,0.00
2018-12-09T03:40:52.796Z,0.00
2018-12-09T03:41:52.781Z,0.00
2018-12-09T03:42:52.771Z,0.00
2018-12-09T03:43:52.760Z,0.00
2018-12-09T03:44:52.786Z,0.00
2018-12-09T03:45:52.735Z,0.00
2018-12-09T03:46:52.725Z,0.00
2018-12-09T03:47:52.728Z,0.00
2018-12-09T03:48:52.703Z,0.00
2018-12-09T03:49:52.700Z,0.00
2018-12-09T03:50:52.696Z,0.00
2018-12-09T03:51:52.668Z,0.00
2018-12-09T03:52:52.657Z,0.00
2018-12-09T03:53:52.650Z,0.00
2018-12-09T03:54:52.641Z,0.00
2018-12-09T03:55:52.646Z,0.00
2018-12-09T03:56:52.628Z,0.00
2018-12-09T03:57:52.642Z,0.00
2018-12-09T03:58:52.590Z,0.00
2018-12-09T03:59:52.576Z,0.00
2018-12-09T04:00:52.574Z,0.00
2018-12-09T04:01:52.555Z,0.00
2018-12-09T04:02:52.546Z,0.00
2018-12-09T04:03:52.564Z,0.00
2018-12-09T04:04:52.519Z,0.00
2018-12-09T04:05:52.510Z,0.00
2018-12-09T04:06:52.500Z,0.00
2018-12-09T04:07:52.492Z,0.00
2018-12-09T04:08:52.476Z,0.00
2018-12-09T04:09:52.491Z,0.00
2018-12-09T04:10:52.465Z,0.00
2018-12-09T04:11:52.446Z,0.00
2018-12-09T04:12:52.446Z,0.00
2018-12-09T04:13:52.446Z,0.00
2018-12-09T04:14:52.435Z,0.00
2018-12-09T04:15:52.403Z,0.00
2018-12-09T04:16:52.402Z,0.00
2018-12-09T04:17:52.385Z,0.00
2018-12-09T04:18:52.392Z,0.00
2018-12-09T04:19:52.363Z,0.00
2018-12-09T04:20:52.365Z,0.00
2018-12-09T04:21:52.343Z,0.00
2018-12-09T04:22:52.331Z,0.00
2018-12-09T04:23:52.318Z,0.00
2018-12-09T04:24:52.306Z,0.00
2018-12-09T04:25:52.334Z,0.00
2018-12-09T04:26:52.286Z,0.00
2018-12-09T04:27:52.278Z,0.00
2018-12-09T04:28:52.271Z,0.00
2018-12-09T04:29:52.271Z,0.00
2018-12-09T04:30:52.247Z,0.00
2018-12-09T04:31:52.269Z,0.00
2018-12-09T04:32:52.228Z,0.00
2018-12-09T04:33:52.209Z,0.00
2018-12-09T04:34:52.201Z,0.00
2018-12-09T04:35:52.186Z,0.00
2018-12-09T04:36:52.178Z,0.00
2018-12-09T04:37:52.181Z,0.00
2018-12-09T04:38:52.152Z,0.00
2018-12-09T04:39:52.136Z,0.00
2018-12-09T04:40:52.137Z,0.00
2018-12-09T04:41:52.150Z,0.00
2018-12-09T04:42:52.106Z,0.00
2018-12-09T04:43:52.094Z,0.00
2018-12-09T04:44:52.085Z,0.00
2018-12-09T04:45:52.077Z,0.00
2018-12-09T04:46:52.061Z,0.00
2018-12-09T04:47:52.073Z,0.00
2018-12-09T04:48:52.046Z,0.00
2018-12-09T04:49:52.032Z,0.00
2018-12-09T04:50:52.023Z,0.00
2018-12-09T04:51:52.012Z,0.00
2018-12-09T04:52:52.015Z,0.00
2018-12-09T04:53:51.998Z,0.00
2018-12-09T04:54:51.981Z,0.00
2018-12-09T04:55:52.033Z,0.00
2018-12-09T04:56:51.953Z,0.00
2018-12-09T04:57:51.958Z,0.00
2018-12-09T04:58:51.933Z,0.00
2018-12-09T04:59:51.919Z,0.00
2018-12-09T05:00:51.909Z,0.00
2018-12-09T05:01:51.907Z,0.00
2018-12-09T05:02:51.901Z,0.00
2018-12-09T05:03:51.891Z,0.00
2018-12-09T05:04:51.862Z,0.00
2018-12-09T05:05:51.852Z,0.00
2018-12-09T05:06:51.848Z,0.00
2018-12-09T05:07:51.840Z,0.00
2018-12-09T05:08:51.866Z,0.00
2018-12-09T05:09:51.814Z,0.00
2018-12-09T05:10:51.805Z,0.00
2018-12-09T05:11:51.799Z,0.00
2018-12-09T05:12:51.783Z,0.00
2018-12-09T05:13:51.770Z,0.00
2018-12-09T05:14:51.796Z,0.00
2018-12-09T05:15:51.745Z,0.00
2018-12-09T05:16:51.737Z,0.00
2018-12-09T05:17:51.726Z,0.00
2018-12-09T05:18:51.710Z,0.00
2018-12-09T05:19:51.701Z,0.00
2018-12-09T05:20:51.701Z,0.00
2018-12-09T05:21:51.685Z,0.00
2018-12-09T05:22:51.671Z,0.00
2018-12-09T05:23:51.655Z,0.00
2018-12-09T05:24:51.654Z,0.00
2018-12-09T05:25:51.677Z,0.00
2018-12-09T05:26:51.634Z,0.00
2018-12-09T05:27:51.615Z,0.00
2018-12-09T05:28:51.607Z,0.00
2018-12-09T05:29:51.595Z,0.00
2018-12-09T05:30:51.582Z,0.00
2018-12-09T05:31:51.581Z,0.00
2018-12-09T05:32:51.560Z,0.00
2018-12-09T05:33:51.554Z,0.00
2018-12-09T05:34:51.549Z,0.00
2018-12-09T05:35:51.525Z,0.00
2018-12-09T05:36:51.535Z,0.00
2018-12-09T05:37:51.522Z,0.00
2018-12-09T05:38:51.491Z,0.00
2018-12-09T05:39:51.480Z,0.00
2018-12-09T05:40:51.473Z,0.00
2018-12-09T05:41:51.462Z,0.00
2018-12-09T05:42:51.462Z,0.00
2018-12-09T05:43:51.452Z,0.00
2018-12-09T05:44:51.430Z,0.00
2018-12-09T05:45:51.423Z,0.00
2018-12-09T05:46:51.405Z,0.00
2018-12-09T05:47:51.427Z,0.00
2018-12-09T05:48:51.388Z,0.00
2018-12-09T05:49:51.376Z,0.00
2018-12-09T05:50:51.368Z,0.00
2018-12-09T05:51:51.349Z,0.00
2018-12-09T05:52:51.339Z,0.00
2018-12-09T05:53:51.349Z,0.00
2018-12-09T05:54:51.323Z,0.00
2018-12-09T05:55:51.319Z,0.00
2018-12-09T05:56:51.297Z,0.00
2018-12-09T05:57:51.287Z,0.00
2018-12-09T05:58:51.297Z,0.00
2018-12-09T05:59:51.285Z,0.00
2018-12-09T06:00:51.256Z,0.00
2018-12-09T06:01:51.251Z,0.00
2018-12-09T06:02:51.238Z,0.00
2018-12-09T06:03:51.219Z,0.00
2018-12-09T06:04:51.209Z,0.00
2018-12-09T06:05:51.217Z,0.00
2018-12-09T06:06:51.224Z,0.00
2018-12-09T06:07:51.184Z,0.00
2018-12-09T06:08:51.162Z,0.00
2018-12-09T06:09:51.163Z,0.00
2018-12-09T06:10:51.147Z,0.00
2018-12-09T06:11:51.137Z,0.00
2018-12-09T06:12:51.133Z,0.00
2018-12-09T06:13:51.116Z,0.00
2018-12-09T06:14:51.108Z,0.00
2018-12-09T06:15:51.112Z,0.00
2018-12-09T06:16:51.082Z,0.00
2018-12-09T06:17:51.065Z,0.00
2018-12-09T06:18:51.076Z,0.00
2018-12-09T06:19:51.047Z,0.00
2018-12-09T06:20:51.046Z,0.00
2018-12-09T06:21:51.030Z,0.00
2018-12-09T06:22:51.010Z,0.00
2018-12-09T06:23:51.046Z,0.00
2018-12-09T06:24:50.993Z,0.00
2018-12-09T06:25:50.978Z,0.00
2018-12-09T06:26:50.972Z,0.00
2018-12-09T06:27:50.962Z,0.00
2018-12-09T06:28:50.947Z,0.00
2018-12-09T06:29:50.948Z,0.00
2018-12-09T06:30:50.935Z,0.00
2018-12-09T06:31:50.911Z,0.00
2018-12-09T06:32:50.907Z,0.00
2018-12-09T06:33:50.890Z,0.00
2018-12-09T06:34:50.897Z,0.00
2018-12-09T06:35:50.873Z,0.00
2018-12-09T06:36:50.877Z,0.00
2018-12-09T06:37:50.849Z,0.00
2018-12-09T06:38:50.845Z,4.00
2018-12-09T06:39:50.826Z,4.00
2018-12-09T06:40:50.826Z,4.00
2018-12-09T06:41:50.815Z,4.00
2018-12-09T06:42:50.799Z,4.00
2018-12-09T06:43:50.785Z,0.00
2018-12-09T06:44:50.770Z,4.00
2018-12-09T06:45:50.804Z,0.00
2018-12-09T06:46:50.748Z,4.00
2018-12-09T06:47:50.744Z,4.00
2018-12-09T06:48:50.731Z,4.00
2018-12-09T06:49:50.725Z,4.00
2018-12-09T06:50:50.716Z,4.00
2018-12-09T06:51:50.708Z,4.00
2018-12-09T06:52:50.682Z,4.00
2018-12-09T06:53:50.686Z,4.00
2018-12-09T06:54:50.664Z,8.00
2018-12-09T06:55:50.649Z,8.00
2018-12-09T06:56:50.684Z,8.00
2018-12-09T06:57:50.629Z,8.00
2018-12-09T06:58:50.622Z,12.00
2018-12-09T06:59:50.607Z,12.00
2018-12-09T07:00:50.593Z,12.00
2018-12-09T07:01:50.597Z,12.00
2018-12-09T07:02:50.582Z,12.00
2018-12-09T07:03:50.561Z,20.00
2018-12-09T07:04:50.549Z,16.00
2018-12-09T07:05:50.539Z,16.00
2018-12-09T07:06:50.593Z,20.00
2018-12-09T07:07:50.523Z,28.00
2018-12-09T07:08:50.511Z,28.00
2018-12-09T07:09:50.499Z,28.00
2018-12-09T07:10:50.486Z,32.00
2018-12-09T07:11:50.475Z,32.00
2018-12-09T07:12:50.507Z,32.00
2018-12-09T07:13:50.459Z,40.00
2018-12-09T07:14:50.445Z,56.00
2018-12-09T07:15:50.432Z,60.00
2018-12-09T07:16:50.428Z,76.00
2018-12-09T07:17:50.417Z,60.00
2018-12-09T07:18:50.426Z,60.00
2018-12-09T07:19:50.398Z,56.00
2018-12-09T07:20:50.381Z,60.00
2018-12-09T07:21:50.370Z,80.00
2018-12-09T07:22:50.351Z,88.00
2018-12-09T07:23:50.341Z,104.00
2018-12-09T07:24:50.348Z,96.00
2018-12-09T07:25:50.394Z,128.00
2018-12-09T07:26:50.309Z,108.00
2018-12-09T07:27:50.297Z,108.00
2018-12-09T07:28:50.286Z,108.00
2018-12-09T07:29:50.320Z,140.00
2018-12-09T07:30:50.275Z,164.00
2018-12-09T07:31:50.254Z,196.00
2018-12-09T07:32:50.242Z,220.00
2018-12-09T07:33:50.234Z,252.00
2018-12-09T07:34:50.227Z,256.00
2018-12-09T07:35:50.224Z,240.00
2018-12-09T07:36:50.223Z,232.00
2018-12-09T07:37:50.193Z,232.00
2018-12-09T07:38:50.177Z,240.00
2018-12-09T07:39:50.179Z,224.00
2018-12-09T07:40:50.167Z,260.00
2018-12-09T07:41:50.157Z,280.00
2018-12-09T07:42:50.150Z,348.00
2018-12-09T07:43:50.128Z,352.00
2018-12-09T07:44:50.125Z,352.00
2018-12-09T07:45:50.099Z,412.00
2018-12-09T07:46:50.099Z,416.00
2018-12-09T07:47:50.082Z,328.00
2018-12-09T07:48:50.079Z,280.00
2018-12-09T07:49:50.078Z,260.00
2018-12-09T07:50:50.052Z,236.00
2018-12-09T07:51:50.041Z,340.00
2018-12-09T07:52:50.025Z,312.00
2018-12-09T07:53:50.022Z,360.00
2018-12-09T07:54:50.019Z,400.00
2018-12-09T07:55:49.998Z,352.00
2018-12-09T07:56:49.985Z,332.00
2018-12-09T07:57:49.971Z,396.00
2018-12-09T07:58:49.989Z,456.00
2018-12-09T07:59:49.958Z,392.00
2018-12-09T08:00:49.964Z,556.00
2018-12-09T08:01:49.927Z,524.00
2018-12-09T08:02:49.919Z,600.00
2018-12-09T08:03:49.908Z,600.00
2018-12-09T08:04:49.893Z,620.00
2018-12-09T08:05:49.887Z,456.00
2018-12-09T08:06:49.887Z,460.00
2018-12-09T08:07:49.868Z,368.00
2018-12-09T08:08:49.854Z,528.00
2018-12-09T08:09:49.858Z,660.00
2018-12-09T08:10:49.832Z,700.00
2018-12-09T08:11:49.836Z,808.00
2018-12-09T08:12:49.811Z,672.00
2018-12-09T08:13:49.794Z,416.00
2018-12-09T08:14:49.782Z,288.00
2018-12-09T08:15:49.774Z,380.00
2018-12-09T08:16:49.789Z,404.00
2018-12-09T08:17:49.789Z,540.00
2018-12-09T08:18:49.743Z,644.00
2018-12-09T08:19:49.728Z,532.00
2018-12-09T08:20:49.717Z,588.00
2018-12-09T08:21:49.720Z,612.00
2018-12-09T08:22:49.699Z,584.00
2018-12-09T08:23:49.707Z,580.00
2018-12-09T08:24:49.676Z,656.00
2018-12-09T08:25:49.669Z,824.00
2018-12-09T08:26:49.655Z,956.00
2018-12-09T08:27:49.646Z,1128.00
2018-12-09T08:28:49.634Z,1332.00
2018-12-09T08:29:49.660Z,1500.00
2018-12-09T08:30:49.611Z,1516.00
2018-12-09T08:31:49.602Z,1608.00
2018-12-09T08:32:49.588Z,1600.00
2018-12-09T08:33:49.584Z,1460.00
2018-12-09T08:34:49.571Z,1508.00
2018-12-09T08:35:49.623Z,1600.00
2018-12-09T08:36:49.544Z,1524.00
2018-12-09T08:37:49.535Z,1304.00
2018-12-09T08:38:49.524Z,976.00
2018-12-09T08:39:49.511Z,1168.00
2018-12-09T08:40:49.510Z,1176.00
2018-12-09T08:41:49.521Z,1036.00
2018-12-09T08:42:49.479Z,900.00
2018-12-09T08:43:49.464Z,1468.00
2018-12-09T08:44:49.457Z,1336.00
2018-12-09T08:45:49.451Z,1816.00
2018-12-09T08:46:56.487Z,1572.00
2018-12-09T08:47:49.425Z,1668.00
2018-12-09T08:48:49.413Z,1524.00
2018-12-09T08:49:49.459Z,1272.00
2018-12-09T08:50:49.389Z,1228.00
2018-12-09T08:51:49.407Z,1060.00
2018-12-09T08:52:49.399Z,1112.00
2018-12-09T08:53:49.352Z,1168.00
2018-12-09T08:54:49.345Z,988.00
2018-12-09T08:55:49.335Z,960.00
2018-12-09T08:56:49.326Z,680.00
2018-12-09T08:57:49.316Z,760.00
2018-12-09T08:58:49.316Z,460.00
2018-12-09T08:59:49.302Z,720.00
2018-12-09T09:00:49.281Z,556.00
2018-12-09T09:01:49.270Z,444.00
2018-12-09T09:02:49.261Z,692.00
2018-12-09T09:03:49.250Z,956.00
2018-12-09T09:04:49.250Z,1472.00
2018-12-09T09:05:49.222Z,1876.00
2018-12-09T09:06:49.217Z,2132.00
2018-12-09T09:07:49.207Z,1696.00
2018-12-09T09:08:49.193Z,1996.00
2018-12-09T09:09:49.178Z,1984.00
2018-12-09T09:10:49.184Z,2408.00
2018-12-09T09:11:49.156Z,2268.00
2018-12-09T09:12:49.228Z,1796.00
2018-12-09T09:13:49.134Z,2364.00
2018-12-09T09:14:49.127Z,3224.00
2018-12-09T09:15:49.128Z,3808.00
2018-12-09T09:16:49.101Z,4236.00
2018-12-09T09:17:49.097Z,4384.00
2018-12-09T09:18:49.084Z,3084.00
2018-12-09T09:19:49.147Z,3816.00
2018-12-09T09:20:49.100Z,4292.00
2018-12-09T09:21:49.052Z,4824.00
2018-12-09T09:22:49.040Z,4256.00
2018-12-09T09:23:49.031Z,3960.00
2018-12-09T09:24:49.013Z,3220.00
2018-12-09T09:25:49.005Z,2688.00
2018-12-09T09:26:49.034Z,2924.00
2018-12-09T09:27:49.013Z,3156.00
2018-12-09T09:28:49.077Z,2604.00
2018-12-09T09:29:48.964Z,2188.00
2018-12-09T09:30:48.954Z,1788.00
2018-12-09T09:31:48.943Z,1776.00
2018-12-09T09:32:48.965Z,1836.00
2018-12-09T09:33:48.917Z,2080.00
2018-12-09T09:34:48.929Z,2476.00
2018-12-09T09:35:48.901Z,3672.00
2018-12-09T09:36:48.882Z,3024.00
2018-12-09T09:37:48.980Z,3240.00
2018-12-09T09:38:48.896Z,3548.00
2018-12-09T09:39:48.861Z,3144.00
2018-12-09T09:40:48.873Z,2476.00
2018-12-09T09:41:48.828Z,2660.00
2018-12-09T09:42:48.818Z,2676.00
2018-12-09T09:43:48.812Z,2436.00
2018-12-09T09:44:48.808Z,2552.00
2018-12-09T09:45:48.794Z,2676.00
2018-12-09T09:46:48.780Z,2932.00
2018-12-09T09:47:48.768Z,2504.00
2018-12-09T09:48:48.764Z,1944.00
2018-12-09T09:49:48.745Z,2284.00
2018-12-09T09:50:48.772Z,1960.00
2018-12-09T09:51:48.720Z,1808.00
2018-12-09T09:52:48.710Z,1848.00
2018-12-09T09:53:48.698Z,1700.00
2018-12-09T09:54:48.692Z,1480.00
2018-12-09T09:55:48.676Z,1796.00
2018-12-09T09:56:48.703Z,2084.00
2018-12-09T09:57:48.654Z,2432.00
2018-12-09T09:58:49.620Z,2384.00
2018-12-09T09:59:48.636Z,2516.00
2018-12-09T10:00:48.622Z,2328.00
2018-12-09T10:01:48.611Z,2980.00
2018-12-09T10:02:48.608Z,2876.00
2018-12-09T10:03:48.593Z,3912.00
2018-12-09T10:04:48.581Z,3752.00
2018-12-09T10:05:48.570Z,3644.00
2018-12-09T10:06:48.558Z,3780.00
2018-12-09T10:07:48.556Z,3436.00
2018-12-09T10:08:48.533Z,3160.00
2018-12-09T10:09:48.529Z,3652.00
2018-12-09T10:10:48.516Z,2988.00
2018-12-09T10:11:48.500Z,2456.00
2018-12-09T10:12:49.566Z,2432.00
2018-12-09T10:13:48.485Z,1556.00
2018-12-09T10:14:48.474Z,1360.00
2018-12-09T10:15:49.003Z,1700.00
2018-12-09T10:16:48.447Z,1924.00
2018-12-09T10:17:48.437Z,2448.00
2018-12-09T10:18:48.434Z,2584.00
2018-12-09T10:19:48.416Z,2072.00
2018-12-09T10:20:48.408Z,2988.00
2018-12-09T10:21:48.396Z,2916.00
2018-12-09T10:22:48.385Z,3388.00
2018-12-09T10:23:48.386Z,4376.00
2018-12-09T10:24:48.358Z,6148.00
2018-12-09T10:25:48.351Z,4436.00
2018-12-09T10:26:48.337Z,3708.00
2018-12-09T10:27:50.505Z,3516.00
2018-12-09T10:28:48.321Z,3604.00
2018-12-09T10:29:48.311Z,2876.00
2018-12-09T10:30:48.297Z,3748.00
2018-12-09T10:31:48.287Z,3628.00
2018-12-09T10:32:48.273Z,3120.00
2018-12-09T10:33:49.554Z,2772.00
2018-12-09T10:34:48.279Z,2396.00
2018-12-09T10:35:48.243Z,2292.00
2018-12-09T10:36:48.246Z,3088.00
2018-12-09T10:37:48.223Z,4736.00
2018-12-09T10:38:49.041Z,4928.00
2018-12-09T10:39:48.255Z,2768.00
2018-12-09T10:40:48.187Z,3828.00
2018-12-09T10:41:49.049Z,3312.00
2018-12-09T10:42:48.166Z,2348.00
2018-12-09T10:43:48.155Z,2656.00
2018-12-09T10:44:48.143Z,2332.00
2018-12-09T10:45:48.145Z,2748.00
2018-12-09T10:46:48.127Z,2044.00
2018-12-09T10:47:48.110Z,1808.00
2018-12-09T10:48:48.106Z,2660.00
2018-12-09T10:49:48.095Z,2896.00
2018-12-09T10:50:48.120Z,1612.00
2018-12-09T10:51:48.073Z,1396.00
2018-12-09T10:52:48.067Z,2496.00
2018-12-09T10:53:48.047Z,2416.00
2018-12-09T10:54:48.052Z,1952.00
2018-12-09T10:55:48.028Z,2484.00
2018-12-09T10:56:48.028Z,2276.00
2018-12-09T10:57:48.011Z,2436.00
2018-12-09T10:58:47.992Z,3476.00
2018-12-09T10:59:47.985Z,2368.00
2018-12-09T11:00:47.971Z,2196.00
2018-12-09T11:01:47.999Z,1732.00
2018-12-09T11:02:47.948Z,1552.00
2018-12-09T11:03:47.943Z,1560.00
2018-12-09T11:04:47.926Z,1192.00
2018-12-09T11:05:47.915Z,1172.00
2018-12-09T11:06:47.904Z,2528.00
2018-12-09T11:07:47.910Z,2752.00
2018-12-09T11:08:47.885Z,2496.00
2018-12-09T11:09:47.875Z,1648.00
2018-12-09T11:10:47.867Z,1800.00
2018-12-09T11:11:47.857Z,1868.00
2018-12-09T11:12:47.850Z,2132.00
2018-12-09T11:13:47.836Z,1092.00
2018-12-09T11:14:47.827Z,1024.00
2018-12-09T11:15:47.818Z,1124.00
2018-12-09T11:16:47.797Z,1196.00
2018-12-09T11:17:47.848Z,1676.00
2018-12-09T11:18:47.777Z,2164.00
2018-12-09T11:19:47.811Z,1784.00
2018-12-09T11:20:47.760Z,2160.00
2018-12-09T11:21:47.743Z,1884.00
2018-12-09T11:22:47.736Z,1704.00
2018-12-09T11:23:47.728Z,1840.00
2018-12-09T11:24:47.766Z,1848.00
2018-12-09T11:25:48.085Z,1972.00
2018-12-09T11:26:47.712Z,2520.00
2018-12-09T11:27:47.682Z,1872.00
2018-12-09T11:28:47.669Z,1324.00
2018-12-09T11:29:47.702Z,1736.00
2018-12-09T11:30:47.652Z,2776.00
2018-12-09T11:31:47.640Z,3376.00
2018-12-09T11:32:47.628Z,4120.00
2018-12-09T11:33:47.614Z,4712.00
2018-12-09T11:34:47.603Z,4376.00
2018-12-09T11:35:47.603Z,4640.00
2018-12-09T11:36:47.594Z,4944.00
2018-12-09T11:37:47.637Z,4564.00
2018-12-09T11:38:47.569Z,4916.00
2018-12-09T11:39:47.555Z,4568.00
2018-12-09T11:40:47.574Z,4088.00
2018-12-09T11:41:47.550Z,4040.00
2018-12-09T11:42:47.517Z,3804.00
2018-12-09T11:43:47.504Z,3928.00
2018-12-09T11:44:47.498Z,3720.00
2018-12-09T11:45:47.481Z,3508.00
2018-12-09T11:46:47.470Z,3592.00
2018-12-09T11:47:47.494Z,3516.00
2018-12-09T11:48:47.450Z,3516.00
2018-12-09T11:49:47.437Z,3424.00
2018-12-09T11:50:47.431Z,3484.00
2018-12-09T11:51:47.419Z,3560.00
2018-12-09T11:52:47.415Z,3616.00
2018-12-09T11:53:47.405Z,3164.00
2018-12-09T11:54:47.391Z,2776.00
2018-12-09T11:55:47.374Z,2604.00
2018-12-09T11:56:47.366Z,2364.00
2018-12-09T11:57:47.368Z,2244.00
2018-12-09T11:58:47.349Z,2036.00
2018-12-09T11:59:47.341Z,2032.00
2018-12-09T12:00:47.319Z,2092.00
2018-12-09T12:01:47.306Z,2152.00
2018-12-09T12:02:47.296Z,2232.00
2018-12-09T12:03:47.289Z,1952.00
2018-12-09T12:04:47.280Z,1888.00
2018-12-09T12:05:47.312Z,1984.00
2018-12-09T12:06:47.251Z,2076.00
2018-12-09T12:07:47.247Z,2124.00
2018-12-09T12:08:47.235Z,2076.00
2018-12-09T12:09:47.222Z,2384.00
2018-12-09T12:10:47.253Z,1936.00
2018-12-09T12:11:47.207Z,2128.00
2018-12-09T12:12:47.189Z,1768.00
2018-12-09T12:13:47.182Z,1608.00
2018-12-09T12:14:47.170Z,1888.00
2018-12-09T12:15:47.155Z,1732.00
2018-12-09T12:16:47.151Z,1248.00
2018-12-09T12:17:47.143Z,1336.00
2018-12-09T12:18:47.122Z,1356.00
2018-12-09T12:19:47.120Z,1548.00
2018-12-09T12:20:47.110Z,1632.00
2018-12-09T12:21:47.589Z,1816.00
2018-12-09T12:22:47.078Z,1756.00
2018-12-09T12:23:47.070Z,1668.00
2018-12-09T12:24:47.064Z,1312.00
2018-12-09T12:25:47.050Z,1172.00
2018-12-09T12:26:47.042Z,1220.00
2018-12-09T12:27:47.022Z,1492.00
2018-12-09T12:28:47.012Z,1632.00
2018-12-09T12:29:47.002Z,1696.00
2018-12-09T12:30:46.996Z,1656.00
2018-12-09T12:31:47.038Z,1256.00
2018-12-09T12:32:46.972Z,1320.00
2018-12-09T12:33:46.957Z,1876.00
2018-12-09T12:34:47.090Z,2108.00
2018-12-09T12:35:47.005Z,1768.00
2018-12-09T12:36:46.925Z,1624.00
2018-12-09T12:37:46.927Z,1700.00
2018-12-09T12:38:46.902Z,1904.00
2018-12-09T12:39:46.892Z,2256.00
2018-12-09T12:40:46.887Z,2020.00
2018-12-09T12:41:46.887Z,1632.00
2018-12-09T12:42:46.865Z,1772.00
2018-12-09T12:43:46.848Z,1960.00
2018-12-09T12:44:46.837Z,2036.00
2018-12-09T12:45:46.830Z,2284.00
2018-12-09T12:46:46.824Z,1840.00
2018-12-09T12:47:46.809Z,2000.00
2018-12-09T12:48:46.802Z,1668.00
2018-12-09T12:49:46.785Z,1580.00